createdAt,value
2022-08-22T00:02:03.324Z,54.93
2022-08-22T00:02:48.933Z,59.75
2022-08-22T00:02:55.205Z,62.57
2022-08-22T00:02:56.068Z,60.22
2022-08-22T00:03:01.248Z,58.47
2022-08-22T00:03:01.450Z,57.18
2022-08-22T00:03:03.384Z,58.74
2022-08-22T00:03:04.030Z,58.47
2022-08-22T00:03:08.735Z,54.95
2022-08-22T00:04:41.718Z,54.99
2022-08-22T00:07:15.439Z,54.94
2022-08-22T00:09:52.516Z,54.44
2022-08-22T00:12:33.580Z,54.68
2022-08-22T00:15:42.036Z,54.53
2022-08-22T00:18:05.660Z,53.90
2022-08-22T00:20:43.005Z,53.64
2022-08-22T00:23:22.837Z,53.83
2022-08-22T00:26:03.189Z,54.03
2022-08-22T00:28:41.174Z,53.66
2022-08-22T00:31:36.247Z,53.60
2022-08-22T00:34:07.219Z,52.97
2022-08-22T00:36:43.751Z,52.66
2022-08-22T00:39:29.166Z,52.58
2022-08-22T00:42:15.338Z,52.58
2022-08-22T00:45:08.808Z,52.07
2022-08-22T00:47:36.545Z,52.11
2022-08-22T00:50:06.726Z,52.29
2022-08-22T00:52:39.637Z,54.53
2022-08-22T00:55:35.147Z,53.32
2022-08-22T00:58:12.733Z,54.27
2022-08-22T01:00:45.230Z,54.26
2022-08-22T01:03:29.170Z,55.96
2022-08-22T01:06:15.816Z,55.97
2022-08-22T01:08:59.796Z,56.34
2022-08-22T01:11:48.415Z,57.11
2022-08-22T01:14:41.045Z,57.17
2022-08-22T01:17:45.614Z,56.93
2022-08-22T01:20:58.275Z,56.29
2022-08-22T01:23:48.722Z,56.29
2022-08-22T01:26:25.704Z,57.04
2022-08-22T01:29:38.159Z,56.96
2022-08-22T01:32:08.967Z,57.00
2022-08-22T01:34:57.699Z,57.68
2022-08-22T01:37:43.523Z,58.18
2022-08-22T01:40:33.057Z,58.41
2022-08-22T01:43:00.315Z,59.22
2022-08-22T01:45:42.115Z,59.46
2022-08-22T01:48:18.159Z,60.78
2022-08-22T01:50:53.326Z,60.99
2022-08-22T01:53:29.657Z,62.06
2022-08-22T01:55:59.727Z,62.43
2022-08-22T01:58:30.932Z,62.60
2022-08-22T02:01:35.486Z,62.97
2022-08-22T02:04:11.334Z,63.74
2022-08-22T02:06:53.447Z,63.36
2022-08-22T02:09:38.811Z,63.46
2022-08-22T02:12:22.351Z,63.46
2022-08-22T02:14:55.944Z,63.56
2022-08-22T02:17:33.248Z,63.63
2022-08-22T02:20:23.842Z,63.93
2022-08-22T02:23:19.492Z,64.21
2022-08-22T02:25:58.943Z,64.63
2022-08-22T02:28:26.191Z,64.90
2022-08-22T02:31:06.313Z,65.23
2022-08-22T02:33:45.994Z,65.31
2022-08-22T02:36:16.109Z,65.55
2022-08-22T02:38:49.686Z,65.43
2022-08-22T02:42:02.774Z,65.20
2022-08-22T02:44:42.394Z,65.68
2022-08-22T02:47:27.618Z,65.47
2022-08-22T02:50:06.845Z,65.75
2022-08-22T02:52:55.298Z,65.37
2022-08-22T02:55:46.589Z,65.35
2022-08-22T02:58:29.448Z,65.87
2022-08-22T03:00:59.632Z,65.54
2022-08-22T03:03:31.932Z,65.82
2022-08-22T03:06:22.252Z,66.32
2022-08-22T03:09:07.838Z,66.15
2022-08-22T03:11:40.500Z,66.18
2022-08-22T03:14:20.950Z,66.44
2022-08-22T03:17:16.711Z,66.82
2022-08-22T03:20:06.670Z,66.41
2022-08-22T03:22:36.908Z,66.95
2022-08-22T03:25:36.209Z,66.99
2022-08-22T03:28:10.411Z,66.94
2022-08-22T03:30:43.399Z,66.67
2022-08-22T03:33:18.681Z,67.32
2022-08-22T03:35:45.913Z,66.92
2022-08-22T03:38:33.094Z,67.43
2022-08-22T03:41:42.104Z,67.06
2022-08-22T03:44:56.280Z,67.02
2022-08-22T03:47:32.416Z,67.07
2022-08-22T03:50:08.402Z,67.06
2022-08-22T03:53:15.361Z,67.26
2022-08-22T03:56:13.846Z,67.78
2022-08-22T03:59:28.746Z,67.56
2022-08-22T04:02:43.561Z,67.42
2022-08-22T04:05:15.427Z,66.93
2022-08-22T04:08:17.831Z,67.31
2022-08-22T04:11:12.587Z,67.29
2022-08-22T04:13:54.755Z,66.89
2022-08-22T04:16:59.212Z,66.95
2022-08-22T04:19:55.291Z,67.00
2022-08-22T04:22:44.838Z,66.76
2022-08-22T04:25:17.182Z,67.12
2022-08-22T04:28:19.661Z,66.66
2022-08-22T04:30:56.990Z,67.25
2022-08-22T04:33:46.085Z,66.65
2022-08-22T04:36:32.734Z,66.39
2022-08-22T04:39:05.152Z,65.98
2022-08-22T04:41:38.021Z,65.68
2022-08-22T04:44:13.434Z,65.35
2022-08-22T04:46:54.986Z,64.98
2022-08-22T04:49:37.262Z,63.98
2022-08-22T04:52:34.971Z,63.97
2022-08-22T04:55:39.637Z,63.34
2022-08-22T04:58:34.876Z,59.86
2022-08-22T05:01:07.974Z,55.60
2022-08-22T05:03:44.829Z,52.09
2022-08-22T05:06:16.738Z,50.02
2022-08-22T05:08:48.428Z,51.00
2022-08-22T05:11:24.057Z,48.74
2022-08-22T05:14:00.424Z,46.63
2022-08-22T05:16:41.127Z,44.59
2022-08-22T05:19:37.541Z,42.89
2022-08-22T05:22:13.763Z,39.83
2022-08-22T05:24:46.629Z,38.79
2022-08-22T05:27:26.267Z,36.96
2022-08-22T05:30:06.222Z,36.01
2022-08-22T05:32:51.049Z,35.06
2022-08-22T05:35:26.349Z,35.78
2022-08-22T05:37:56.163Z,36.12
2022-08-22T05:40:27.413Z,35.91
2022-08-22T05:42:57.126Z,36.26
2022-08-22T05:45:27.401Z,33.73
2022-08-22T05:48:03.445Z,32.86
2022-08-22T05:50:51.065Z,32.96
2022-08-22T05:53:21.414Z,33.04
2022-08-22T05:56:03.773Z,32.57
2022-08-22T05:58:42.725Z,32.03
2022-08-22T06:01:58.195Z,34.00
2022-08-22T06:04:52.104Z,34.35
2022-08-22T06:07:41.960Z,32.66
2022-08-22T06:10:25.883Z,33.16
2022-08-22T06:12:56.248Z,33.24
2022-08-22T06:15:35.439Z,32.36
2022-08-22T06:18:10.602Z,34.41
2022-08-22T06:20:52.809Z,35.80
2022-08-22T06:23:28.562Z,36.84
2022-08-22T06:26:00.878Z,35.23
2022-08-22T06:28:54.513Z,35.72
2022-08-22T06:31:32.467Z,39.16
2022-08-22T06:34:02.489Z,38.80
2022-08-22T06:36:31.683Z,38.97
2022-08-22T06:39:28.166Z,37.76
2022-08-22T06:42:12.223Z,37.48
2022-08-22T06:44:49.166Z,37.03
2022-08-22T06:47:33.438Z,35.85
2022-08-22T06:50:07.324Z,34.89
2022-08-22T06:52:57.754Z,33.92
2022-08-22T06:55:28.168Z,33.79
2022-08-22T06:58:03.861Z,33.24
2022-08-22T07:00:34.821Z,33.44
2022-08-22T07:03:23.803Z,34.52
2022-08-22T07:05:55.751Z,35.24
2022-08-22T07:08:25.109Z,34.35
2022-08-22T07:11:24.670Z,34.64
2022-08-22T07:14:06.642Z,34.61
2022-08-22T07:16:52.298Z,34.29
2022-08-22T07:19:45.804Z,33.85
2022-08-22T07:22:17.070Z,34.77
2022-08-22T07:24:50.827Z,36.15
2022-08-22T07:27:50.317Z,36.39
2022-08-22T07:30:27.851Z,36.37
2022-08-22T07:33:26.645Z,37.21
2022-08-22T07:36:02.235Z,37.61
2022-08-22T07:38:47.705Z,36.19
2022-08-22T07:41:29.815Z,34.06
2022-08-22T07:44:01.170Z,34.00
2022-08-22T07:46:39.457Z,34.13
2022-08-22T07:49:24.556Z,34.81
2022-08-22T07:52:00.778Z,34.18
2022-08-22T07:55:12.044Z,34.72
2022-08-22T07:57:43.920Z,36.05
2022-08-22T08:00:20.011Z,36.69
2022-08-22T08:02:51.670Z,35.71
2022-08-22T08:05:21.272Z,34.08
2022-08-22T08:07:49.405Z,34.48
2022-08-22T08:10:24.209Z,37.68
2022-08-22T08:13:02.626Z,37.83
2022-08-22T08:15:32.431Z,37.03
2022-08-22T08:18:12.833Z,36.92
2022-08-22T08:20:40.480Z,36.43
2022-08-22T08:23:10.740Z,35.54
2022-08-22T08:26:16.166Z,35.97
2022-08-22T08:28:52.461Z,37.42
2022-08-22T08:31:43.187Z,37.82
2022-08-22T08:34:22.219Z,38.41
2022-08-22T08:37:09.432Z,37.35
2022-08-22T08:39:48.644Z,38.75
2022-08-22T08:42:18.437Z,40.74
2022-08-22T08:44:51.341Z,41.85
2022-08-22T08:47:37.001Z,43.11
2022-08-22T08:50:29.498Z,44.69
2022-08-22T08:53:18.209Z,48.10
2022-08-22T08:56:04.925Z,48.00
2022-08-22T08:58:49.682Z,48.20
2022-08-22T09:01:49.007Z,51.23
2022-08-22T09:04:52.647Z,50.84
2022-08-22T09:07:44.325Z,49.53
2022-08-22T09:10:48.563Z,49.59
2022-08-22T09:13:44.521Z,49.53
2022-08-22T09:16:17.477Z,50.43
2022-08-22T09:19:04.270Z,51.29
2022-08-22T09:21:59.090Z,50.96
2022-08-22T09:24:37.502Z,49.67
2022-08-22T09:27:16.425Z,49.84
2022-08-22T09:30:05.893Z,48.89
2022-08-22T09:32:52.766Z,50.03
2022-08-22T09:35:38.414Z,48.93
2022-08-22T09:38:51.246Z,50.40
2022-08-22T09:41:38.099Z,49.70
2022-08-22T09:44:24.812Z,51.04
2022-08-22T09:47:15.745Z,48.68
2022-08-22T09:50:06.772Z,50.37
2022-08-22T09:53:06.780Z,53.22
2022-08-22T09:55:48.034Z,50.81
2022-08-22T09:58:41.541Z,49.90
2022-08-22T10:01:32.780Z,52.55
2022-08-22T10:04:03.301Z,53.60
2022-08-22T10:06:51.226Z,51.77
2022-08-22T10:09:47.393Z,48.13
2022-08-22T10:12:35.124Z,50.82
2022-08-22T10:15:21.666Z,48.18
2022-08-22T10:18:10.427Z,50.61
2022-08-22T10:21:02.664Z,50.37
2022-08-22T10:23:41.769Z,51.64
2022-08-22T10:26:36.516Z,51.38
2022-08-22T10:29:38.910Z,52.37
2022-08-22T10:32:16.434Z,52.12
2022-08-22T10:34:48.832Z,51.23
2022-08-22T10:37:32.842Z,49.40
2022-08-22T10:40:13.424Z,50.88
2022-08-22T10:43:09.373Z,50.41
2022-08-22T10:45:47.037Z,50.75
2022-08-22T10:48:43.606Z,51.42
2022-08-22T10:51:23.910Z,52.00
2022-08-22T10:54:19.899Z,50.91
2022-08-22T10:57:11.549Z,50.89
2022-08-22T10:59:46.279Z,52.63
2022-08-22T11:02:36.859Z,51.67
2022-08-22T11:05:29.642Z,50.59
2022-08-22T11:08:34.613Z,52.57
2022-08-22T11:11:17.662Z,52.60
2022-08-22T11:13:56.742Z,51.26
2022-08-22T11:17:27.599Z,53.35
2022-08-22T11:20:22.216Z,52.49
2022-08-22T11:23:12.675Z,53.47
2022-08-22T11:26:07.782Z,53.17
2022-08-22T11:28:43.785Z,53.83
2022-08-22T11:31:26.070Z,51.92
2022-08-22T11:34:30.342Z,52.63
2022-08-22T11:37:11.619Z,52.63
2022-08-22T11:39:45.570Z,53.60
2022-08-22T11:42:31.369Z,52.74
2022-08-22T11:45:05.270Z,53.56
2022-08-22T11:47:45.331Z,54.67
2022-08-22T11:50:29.745Z,53.36
2022-08-22T11:53:33.038Z,53.56
2022-08-22T11:56:10.414Z,53.77
2022-08-22T11:59:06.225Z,54.94
2022-08-22T12:01:49.056Z,56.30
2022-08-22T12:04:28.721Z,54.52
2022-08-22T12:07:22.034Z,54.75
2022-08-22T12:10:03.737Z,55.03
2022-08-22T12:13:01.507Z,55.67
2022-08-22T12:15:40.455Z,54.75
2022-08-22T12:18:36.121Z,54.58
2022-08-22T12:21:23.137Z,54.75
2022-08-22T12:24:06.164Z,54.42
2022-08-22T12:26:45.462Z,55.09
2022-08-22T12:29:39.700Z,54.88
2022-08-22T12:32:28.635Z,46.91
2022-08-22T12:35:20.654Z,44.59
2022-08-22T12:38:29.091Z,45.19
2022-08-22T12:41:28.132Z,46.97
2022-08-22T12:44:02.341Z,49.78
2022-08-22T12:46:56.338Z,51.25
2022-08-22T12:50:06.722Z,52.98
2022-08-22T12:52:56.327Z,57.34
2022-08-22T12:55:40.436Z,65.54
2022-08-22T12:58:08.005Z,71.89
2022-08-22T13:00:44.114Z,79.44
2022-08-22T13:03:25.772Z,84.65
2022-08-22T13:05:57.256Z,86.65
2022-08-22T13:08:36.049Z,89.33
2022-08-22T13:11:22.319Z,91.61
2022-08-22T13:14:00.292Z,93.08
2022-08-22T13:16:39.033Z,94.73
2022-08-22T13:19:13.645Z,96.22
2022-08-22T13:21:48.878Z,96.47
2022-08-22T13:24:38.598Z,97.24
2022-08-22T13:27:14.961Z,99.16
2022-08-22T13:29:53.148Z,97.98
2022-08-22T13:32:33.841Z,100.00
2022-08-22T13:35:03.071Z,100.00
2022-08-22T13:37:44.475Z,98.45
2022-08-22T13:40:21.525Z,96.19
2022-08-22T13:43:02.836Z,93.26
2022-08-22T13:45:32.882Z,94.82
2022-08-22T13:48:04.046Z,94.46
2022-08-22T13:50:58.746Z,91.85
2022-08-22T13:54:00.382Z,90.47
2022-08-22T13:56:47.188Z,87.79
2022-08-22T13:59:49.069Z,86.36
2022-08-22T14:02:51.373Z,84.82
2022-08-22T14:05:48.953Z,84.10
2022-08-22T14:08:20.776Z,82.06
2022-08-22T14:10:55.336Z,80.23
2022-08-22T14:13:37.104Z,81.79
2022-08-22T14:16:19.593Z,82.02
2022-08-22T14:18:55.080Z,82.94
2022-08-22T14:21:51.999Z,80.25
2022-08-22T14:24:30.925Z,80.26
2022-08-22T14:27:41.481Z,81.58
2022-08-22T14:30:19.006Z,81.09
2022-08-22T14:32:59.399Z,80.94
2022-08-22T14:35:57.737Z,78.37
2022-08-22T14:38:39.128Z,77.09
2022-08-22T14:41:52.710Z,77.05
2022-08-22T14:44:28.008Z,79.42
2022-08-22T14:47:12.514Z,78.94
2022-08-22T14:49:59.202Z,77.21
2022-08-22T14:52:43.158Z,76.99
2022-08-22T14:55:15.136Z,78.79
2022-08-22T14:58:03.221Z,77.29
2022-08-22T15:00:40.252Z,76.52
2022-08-22T15:03:17.523Z,76.74
2022-08-22T15:05:53.639Z,76.60
2022-08-22T15:08:34.789Z,77.08
2022-08-22T15:11:14.525Z,77.90
2022-08-22T15:14:12.790Z,78.17
2022-08-22T15:16:46.565Z,79.44
2022-08-22T15:19:36.514Z,78.49
2022-08-22T15:22:28.304Z,77.79
2022-08-22T15:25:18.658Z,76.99
2022-08-22T15:27:52.956Z,76.98
2022-08-22T15:30:34.578Z,77.82
2022-08-22T15:33:37.992Z,75.02
2022-08-22T15:36:15.939Z,75.47
2022-08-22T15:38:56.265Z,75.42
2022-08-22T15:41:36.986Z,75.23
2022-08-22T15:44:32.418Z,73.52
2022-08-22T15:47:25.496Z,72.71
2022-08-22T15:50:00.460Z,72.80
2022-08-22T15:52:32.210Z,73.63
2022-08-22T15:55:17.044Z,72.66
2022-08-22T15:57:57.663Z,70.61
2022-08-22T16:00:33.480Z,69.48
2022-08-22T16:03:34.477Z,69.00
2022-08-22T16:06:08.165Z,67.77
2022-08-22T16:08:52.194Z,68.06
2022-08-22T16:11:33.417Z,66.26
2022-08-22T16:14:21.772Z,66.75
2022-08-22T16:16:56.849Z,66.42
2022-08-22T16:19:27.511Z,67.44
2022-08-22T16:21:59.659Z,66.57
2022-08-22T16:24:27.040Z,67.68
2022-08-22T16:26:54.722Z,72.28
2022-08-22T16:29:41.551Z,73.79
2022-08-22T16:32:12.515Z,74.02
2022-08-22T16:34:46.020Z,74.15
2022-08-22T16:37:18.182Z,73.81
2022-08-22T16:39:52.607Z,74.79
2022-08-22T16:42:22.100Z,75.31
2022-08-22T16:45:05.484Z,75.54
2022-08-22T16:47:41.950Z,76.20
2022-08-22T16:50:27.204Z,74.72
2022-08-22T16:53:00.326Z,74.17
2022-08-22T16:55:30.335Z,74.00
2022-08-22T16:58:10.595Z,74.58
2022-08-22T17:01:10.843Z,74.84
2022-08-22T17:03:45.674Z,75.49
2022-08-22T17:06:21.019Z,75.96
2022-08-22T17:08:51.427Z,75.34
2022-08-22T17:11:41.348Z,74.98
2022-08-22T17:14:45.786Z,75.85
2022-08-22T17:17:25.464Z,74.63
2022-08-22T17:20:08.472Z,75.97
2022-08-22T17:22:54.638Z,76.62
2022-08-22T17:25:35.170Z,76.96
2022-08-22T17:28:40.523Z,75.86
2022-08-22T17:31:30.365Z,75.74
2022-08-22T17:34:29.528Z,77.48
2022-08-22T17:37:21.820Z,77.68
2022-08-22T17:40:06.954Z,78.58
2022-08-22T17:42:54.015Z,79.22
2022-08-22T17:45:39.992Z,78.95
2022-08-22T17:48:26.052Z,78.74
2022-08-22T17:50:58.196Z,78.85
2022-08-22T17:53:43.538Z,79.47
2022-08-22T17:56:19.258Z,79.12
2022-08-22T17:58:58.951Z,78.08
2022-08-22T18:01:47.760Z,78.83
2022-08-22T18:04:25.686Z,79.87
2022-08-22T18:07:22.139Z,78.98
2022-08-22T18:10:01.127Z,78.98
2022-08-22T18:12:40.624Z,79.46
2022-08-22T18:15:25.728Z,80.32
2022-08-22T18:18:03.318Z,80.23
2022-08-22T18:20:50.206Z,80.62
2022-08-22T18:23:36.206Z,80.96
2022-08-22T18:26:13.278Z,80.19
2022-08-22T18:28:49.151Z,80.81
2022-08-22T18:31:24.975Z,80.20
2022-08-22T18:34:06.632Z,80.83
2022-08-22T18:36:47.808Z,80.83
2022-08-22T18:39:29.078Z,80.18
2022-08-22T18:42:22.834Z,79.36
2022-08-22T18:44:49.898Z,79.16
2022-08-22T18:47:25.854Z,78.52
2022-08-22T18:49:55.992Z,78.56
2022-08-22T18:52:26.285Z,78.42
2022-08-22T18:55:15.764Z,78.41
2022-08-22T18:58:02.420Z,78.12
2022-08-22T19:00:41.692Z,76.93
2022-08-22T19:03:36.290Z,76.30
2022-08-22T19:06:21.908Z,75.74
2022-08-22T19:09:18.810Z,74.91
2022-08-22T19:11:59.015Z,73.74
2022-08-22T19:14:41.192Z,72.50
2022-08-22T19:17:15.063Z,73.28
2022-08-22T19:20:20.010Z,73.49
2022-08-22T19:22:51.109Z,73.39
2022-08-22T19:25:27.772Z,73.06
2022-08-22T19:28:07.275Z,72.03
2022-08-22T19:30:34.644Z,72.32
2022-08-22T19:33:11.725Z,72.89
2022-08-22T19:35:42.114Z,72.75
2022-08-22T19:38:11.031Z,72.64
2022-08-22T19:40:58.286Z,72.25
2022-08-22T19:43:38.695Z,72.60
2022-08-22T19:46:11.232Z,73.27
2022-08-22T19:48:47.378Z,72.96
2022-08-22T19:51:29.159Z,73.85
2022-08-22T19:54:02.654Z,74.05
2022-08-22T19:56:51.714Z,75.06
2022-08-22T19:59:46.780Z,74.86
2022-08-22T20:02:33.643Z,74.16
2022-08-22T20:05:00.880Z,74.46
2022-08-22T20:10:49.514Z,74.09
2022-08-22T20:13:26.293Z,73.26
2022-08-22T20:16:44.647Z,73.02
2022-08-22T20:19:12.188Z,73.09
2022-08-22T20:21:53.482Z,73.20
2022-08-22T20:25:05.077Z,72.81
2022-08-22T20:27:38.320Z,72.81
2022-08-22T20:30:24.917Z,73.23
2022-08-22T20:33:07.947Z,73.27
2022-08-22T20:35:41.439Z,73.25
2022-08-22T20:38:16.786Z,73.40
2022-08-22T20:40:57.215Z,73.40
2022-08-22T20:43:35.875Z,73.93
2022-08-22T20:46:25.199Z,74.14
2022-08-22T20:48:55.038Z,74.35
2022-08-22T20:51:25.635Z,74.64
2022-08-22T20:53:59.205Z,75.14
2022-08-22T20:56:52.699Z,74.59
2022-08-22T20:59:41.991Z,74.61
2022-08-22T21:02:15.520Z,73.88
2022-08-22T21:05:08.883Z,73.16
2022-08-22T21:07:37.889Z,72.80
2022-08-22T21:10:26.105Z,72.46
2022-08-22T21:13:01.363Z,71.34
2022-08-22T21:15:56.467Z,70.25
2022-08-22T21:18:34.224Z,69.92
2022-08-22T21:21:07.026Z,69.47
2022-08-22T21:23:37.994Z,69.42
2022-08-22T21:26:10.618Z,68.98
2022-08-22T21:28:55.772Z,69.27
2022-08-22T21:31:27.379Z,68.86
2022-08-22T21:33:56.912Z,69.31
2022-08-22T21:36:27.799Z,68.61
2022-08-22T21:39:20.577Z,68.95
2022-08-22T21:41:55.181Z,68.87
2022-08-22T21:44:38.575Z,69.17
2022-08-22T21:47:30.760Z,69.26
2022-08-22T21:50:16.241Z,68.86
2022-08-22T21:53:14.096Z,67.99
2022-08-22T21:55:43.371Z,68.13
2022-08-22T21:58:36.793Z,68.20
2022-08-22T22:01:28.900Z,67.33
2022-08-22T22:03:57.510Z,67.00
2022-08-22T22:06:25.588Z,67.11
2022-08-22T22:08:52.915Z,66.95
2022-08-22T22:11:20.238Z,67.66
2022-08-22T22:13:47.654Z,67.51
2022-08-22T22:16:22.378Z,67.98
2022-08-22T22:18:49.680Z,68.31
2022-08-22T22:21:17.115Z,68.14
2022-08-22T22:23:44.370Z,67.47
2022-08-22T22:26:12.296Z,67.76
2022-08-22T22:28:47.490Z,67.38
2022-08-22T22:31:18.466Z,67.57
2022-08-22T22:33:46.361Z,68.12
2022-08-22T22:36:21.024Z,68.04
2022-08-22T22:38:51.499Z,68.04
2022-08-22T22:41:21.410Z,68.11
2022-08-22T22:43:48.657Z,68.78
2022-08-22T22:46:15.863Z,68.41
2022-08-22T22:48:43.034Z,68.14
2022-08-22T22:51:12.618Z,68.22
2022-08-22T22:53:42.900Z,68.14
2022-08-22T22:56:15.780Z,68.42
2022-08-22T22:58:43.917Z,68.39
2022-08-22T23:01:21.007Z,68.63
2022-08-22T23:03:52.540Z,68.16
2022-08-22T23:06:22.461Z,68.57
2022-08-22T23:08:50.314Z,69.23
2022-08-22T23:11:25.525Z,68.74
2022-08-22T23:13:53.053Z,69.14
2022-08-22T23:16:23.786Z,69.20
2022-08-22T23:18:51.107Z,68.96
2022-08-22T23:21:19.845Z,69.05
2022-08-22T23:23:48.971Z,68.39
2022-08-22T23:26:16.683Z,67.63
2022-08-22T23:28:44.526Z,67.41
2022-08-22T23:31:24.308Z,67.54
2022-08-22T23:33:51.458Z,67.17
2022-08-22T23:36:21.150Z,67.42
2022-08-22T23:38:49.889Z,67.02
2022-08-22T23:41:18.678Z,66.39
2022-08-22T23:43:49.813Z,65.77
2022-08-22T23:46:18.965Z,65.81
2022-08-22T23:48:46.806Z,65.52
2022-08-22T23:51:16.649Z,65.31
2022-08-22T23:53:44.802Z,65.07
2022-08-22T23:56:22.517Z,65.30
2022-08-22T23:58:50.658Z,65.46
